Time;durP1;ratioP1;P1;durP2;ratioP2;P2;SDS_P1;SDS_P2;PMS_P1;PMS_P2;Temp;Humidity;BMP_temperature;BMP_pressure;BME280_temperature;BME280_humidity;BME280_pressure;Samples;Min_cycle;Max_cycle;Signal;HPM_P1;HPM_P2
2023/10/13 00:01:54;;;;;;;11.57;3.20;;;;;;;;;;4955116;29;20415;-68
2023/10/13 00:04:24;;;;;;;1.70;1.70;;;;;;;;;;4955229;29;20899;-68
2023/10/13 00:06:51;;;;;;;3.67;2.40;;;;;;;;;;4954719;29;20986;-68
2023/10/13 00:09:16;;;;;;;9.30;2.50;;;;;;;;;;4954755;29;20477;-68
2023/10/13 00:11:46;;;;;;;2.20;2.10;;;;;;;;;;4955234;29;20426;-69
2023/10/13 00:14:16;;;;;;;9.83;3.33;;;;;;;;;;4954573;29;20482;-68
2023/10/13 00:16:43;;;;;;;1.70;1.70;;;;;;;;;;4954979;29;20423;-69
2023/10/13 00:19:13;;;;;;;1.67;1.57;;;;;;;;;;4954480;28;20555;-68
2023/10/13 00:21:39;;;;;;;8.73;2.13;;;;;;;;;;4954656;29;20427;-67
2023/10/13 00:24:12;;;;;;;2.27;2.17;;;;;;;;;;4954495;29;20783;-68
2023/10/13 00:26:42;;;;;;;2.93;2.30;;;;;;;;;;4955167;29;20927;-69
2023/10/13 00:31:40;;;;;;;2.67;2.47;;;;;;;;;;4954863;29;20435;-68
2023/10/13 00:34:49;;;;;;;2.80;2.37;;;;;;;;;;4954761;29;20403;-67
2023/10/13 00:39:45;;;;;;;7.47;3.27;;;;;;;;;;4954988;29;20477;-69
2023/10/13 00:42:25;;;;;;;5.03;2.10;;;;;;;;;;4954580;29;20494;-67
2023/10/13 00:44:54;;;;;;;6.43;3.23;;;;;;;;;;4954571;29;20403;-68
2023/10/13 00:47:39;;;;;;;10.20;2.90;;;;;;;;;;4954396;29;20411;-67
2023/10/13 00:50:10;;;;;;;5.60;2.60;;;;;;;;;;4955344;28;20431;-68
2023/10/13 00:52:36;;;;;;;2.20;2.10;;;;;;;;;;4958090;29;20474;-68
2023/10/13 00:55:04;;;;;;;3.67;2.47;;;;;;;;;;4957920;29;20922;-68
2023/10/13 00:57:30;;;;;;;3.17;2.40;;;;;;;;;;4957889;29;20502;-69
2023/10/13 00:59:57;;;;;;;3.03;2.27;;;;;;;;;;4957541;29;20528;-68
2023/10/13 01:02:41;;;;;;;1.60;1.60;;;;;;;;;;4957630;29;20423;-68
2023/10/13 01:05:11;;;;;;;4.97;2.13;;;;;;;;;;4957451;29;20439;-68
2023/10/13 01:07:37;;;;;;;3.83;2.43;;;;;;;;;;4957820;29;20415;-68
2023/10/13 01:10:07;;;;;;;3.00;2.47;;;;;;;;;;4957608;29;20789;-68
2023/10/13 01:12:33;;;;;;;1.63;1.63;;;;;;;;;;4957623;29;20509;-68
2023/10/13 01:14:59;;;;;;;1.50;1.40;;;;;;;;;;4957699;29;20559;-68
2023/10/13 01:17:31;;;;;;;1.50;1.50;;;;;;;;;;4957057;28;20466;-68
2023/10/13 01:19:58;;;;;;;1.33;1.33;;;;;;;;;;4957600;29;20486;-69
2023/10/13 01:22:24;;;;;;;4.60;2.70;;;;;;;;;;4957318;29;20420;-68
2023/10/13 01:27:54;;;;;;;4.57;3.00;;;;;;;;;;4957237;29;20394;-68
2023/10/13 01:30:24;;;;;;;4.50;2.67;;;;;;;;;;4939853;29;20925;-67
2023/10/13 01:32:50;;;;;;;1.70;1.70;;;;;;;;;;4957470;29;20411;-68
2023/10/13 01:35:18;;;;;;;2.90;1.43;;;;;;;;;;4957327;29;20431;-68
2023/10/13 01:37:45;;;;;;;12.83;2.63;;;;;;;;;;4956911;29;20423;-68
2023/10/13 01:40:12;;;;;;;2.67;2.40;;;;;;;;;;4939703;29;20861;-68
2023/10/13 01:42:39;;;;;;;1.80;1.80;;;;;;;;;;4956969;29;20425;-69
2023/10/13 01:45:05;;;;;;;5.97;2.27;;;;;;;;;;4956988;29;20794;-68
2023/10/13 01:47:34;;;;;;;2.60;2.40;;;;;;;;;;4956383;29;20911;-69
2023/10/13 01:50:30;;;;;;;4.63;2.80;;;;;;;;;;4957061;29;20423;-68
2023/10/13 01:52:46;;;;;;;3.43;2.53;;;;;;;;;;4956691;29;20430;-69
2023/10/13 01:55:14;;;;;;;2.80;2.47;;;;;;;;;;4956585;29;20523;-67
2023/10/13 01:57:42;;;;;;;3.77;1.90;;;;;;;;;;4956569;29;20942;-68
2023/10/13 02:00:18;;;;;;;5.27;2.20;;;;;;;;;;4956739;29;20961;-68
2023/10/13 02:02:45;;;;;;;3.90;2.63;;;;;;;;;;4956520;28;20418;-68
2023/10/13 02:05:11;;;;;;;6.93;2.10;;;;;;;;;;4956607;29;20459;-67
2023/10/13 02:07:38;;;;;;;4.20;2.60;;;;;;;;;;4956716;29;20418;-67
2023/10/13 02:10:05;;;;;;;1.93;1.93;;;;;;;;;;4956624;29;20419;-68
2023/10/13 02:12:44;;;;;;;4.33;2.67;;;;;;;;;;4956379;29;20418;-69
2023/10/13 02:15:21;;;;;;;4.17;3.30;;;;;;;;;;4956258;29;20528;-68
2023/10/13 02:17:51;;;;;;;4.93;2.73;;;;;;;;;;4956072;28;20818;-67
2023/10/13 02:20:18;;;;;;;10.97;2.57;;;;;;;;;;4956440;29;20466;-68
2023/10/13 02:22:50;;;;;;;8.03;2.97;;;;;;;;;;4956401;29;20506;-68
2023/10/13 02:25:17;;;;;;;6.00;2.73;;;;;;;;;;4956248;29;20408;-69
2023/10/13 02:27:48;;;;;;;12.27;3.10;;;;;;;;;;4956059;29;20975;-68
2023/10/13 02:30:14;;;;;;;5.93;2.70;;;;;;;;;;4955986;29;20955;-69
2023/10/13 02:32:43;;;;;;;3.13;2.83;;;;;;;;;;4956228;29;20411;-67
2023/10/13 02:35:15;;;;;;;3.03;2.80;;;;;;;;;;4956935;29;20434;-69
2023/10/13 02:37:54;;;;;;;8.33;2.80;;;;;;;;;;4956180;29;20407;-68
2023/10/13 02:40:23;;;;;;;6.03;2.20;;;;;;;;;;4956023;29;20462;-68
2023/10/13 02:42:49;;;;;;;1.63;1.63;;;;;;;;;;4955846;29;20500;-68
2023/10/13 02:45:15;;;;;;;12.50;3.10;;;;;;;;;;4955928;29;20428;-68
2023/10/13 02:47:44;;;;;;;6.23;2.70;;;;;;;;;;4955706;29;20411;-69
2023/10/13 02:50:12;;;;;;;2.83;2.63;;;;;;;;;;4955994;29;20426;-68
2023/10/13 02:52:41;;;;;;;5.23;2.40;;;;;;;;;;4955639;29;20422;-68
2023/10/13 02:55:10;;;;;;;3.30;3.00;;;;;;;;;;4955807;29;20423;-68
2023/10/13 02:57:36;;;;;;;3.27;2.70;;;;;;;;;;4955534;29;20561;-69
2023/10/13 03:00:15;;;;;;;31.80;3.47;;;;;;;;;;4955430;29;20470;-68
2023/10/13 03:02:45;;;;;;;6.87;3.17;;;;;;;;;;4956329;29;20506;-68
2023/10/13 03:05:13;;;;;;;6.57;2.40;;;;;;;;;;4955538;29;20435;-68
2023/10/13 03:07:43;;;;;;;4.70;2.57;;;;;;;;;;4955344;29;20415;-68
2023/10/13 03:10:09;;;;;;;6.03;2.63;;;;;;;;;;4955477;29;20979;-68
2023/10/13 03:12:36;;;;;;;4.30;2.50;;;;;;;;;;4955603;28;20565;-68
2023/10/13 03:17:43;;;;;;;9.10;2.37;;;;;;;;;;4955296;28;20481;-68
2023/10/13 03:20:12;;;;;;;4.27;2.50;;;;;;;;;;4955319;29;20467;-68
2023/10/13 03:22:38;;;;;;;3.40;2.80;;;;;;;;;;4938812;29;20427;-69
2023/10/13 03:25:04;;;;;;;4.93;2.57;;;;;;;;;;4955182;29;20426;-68
2023/10/13 03:27:48;;;;;;;8.63;3.10;;;;;;;;;;4937896;29;20612;-68
2023/10/13 03:30:15;;;;;;;6.10;2.73;;;;;;;;;;4955038;29;20895;-68
2023/10/13 03:32:46;;;;;;;2.83;2.70;;;;;;;;;;4955347;29;20414;-68
2023/10/13 03:35:24;;;;;;;6.00;2.50;;;;;;;;;;4955100;29;20454;-68
2023/10/13 03:37:51;;;;;;;2.43;2.33;;;;;;;;;;4955105;29;20910;-67
2023/10/13 03:43:06;;;;;;;8.07;3.00;;;;;;;;;;4955290;29;20426;-68
2023/10/13 03:45:39;;;;;;;6.77;2.80;;;;;;;;;;4955955;29;20739;-70
2023/10/13 03:48:09;;;;;;;6.87;3.50;;;;;;;;;;4955751;29;20439;-67
2023/10/13 03:50:36;;;;;;;4.00;3.57;;;;;;;;;;4954948;29;20757;-69
2023/10/13 03:53:03;;;;;;;11.00;2.63;;;;;;;;;;4955140;29;20504;-69
2023/10/13 03:55:29;;;;;;;3.33;2.87;;;;;;;;;;4955132;29;20434;-68
2023/10/13 03:57:55;;;;;;;4.40;2.30;;;;;;;;;;4937669;29;20431;-67
2023/10/13 04:00:25;;;;;;;3.90;2.33;;;;;;;;;;4954922;29;20569;-68
2023/10/13 04:19:19;;;;;;;2.23;2.13;;;;;;;;;;4954671;28;20506;-68
2023/10/13 04:29:45;;;;;;;15.27;3.27;;;;;;;;;;4958461;29;20394;-68
2023/10/13 04:32:14;;;;;;;6.37;2.60;;;;;;;;;;4958467;29;20414;-68
2023/10/13 04:34:45;;;;;;;5.83;2.77;;;;;;;;;;4958318;29;20767;-69
2023/10/13 04:37:47;;;;;;;4.90;2.07;;;;;;;;;;4958428;29;20771;-68
2023/10/13 04:40:09;;;;;;;3.30;3.00;;;;;;;;;;4957370;29;20514;-68
2023/10/13 04:42:53;;;;;;;3.10;2.90;;;;;;;;;;4958283;29;20403;-68
2023/10/13 04:48:13;;;;;;;3.57;3.37;;;;;;;;;;4957808;29;20449;-68
2023/10/13 04:50:45;;;;;;;9.50;4.13;;;;;;;;;;4957788;29;20908;-69
2023/10/13 04:53:28;;;;;;;9.73;3.90;;;;;;;;;;4958111;29;20887;-68
2023/10/13 05:04:08;;;;;;;3.83;3.50;;;;;;;;;;4957981;29;20801;-68
2023/10/13 05:50:29;;;;;;;6.93;3.50;;;;;;;;;;4956856;29;20498;-68
2023/10/13 06:28:50;;;;;;;5.63;4.03;;;;;;;;;;4956217;29;20464;-68
2023/10/13 06:31:22;;;;;;;2.00;2.00;;;;;;;;;;4956471;29;20419;-68
2023/10/13 06:33:48;;;;;;;9.70;3.60;;;;;;;;;;4955926;29;20884;-68
2023/10/13 06:36:14;;;;;;;4.60;3.50;;;;;;;;;;4956151;29;20426;-71
2023/10/13 06:38:41;;;;;;;8.60;3.73;;;;;;;;;;4956094;29;20444;-68
2023/10/13 06:41:07;;;;;;;7.90;3.13;;;;;;;;;;4956089;29;20466;-68
2023/10/13 06:43:39;;;;;;;6.33;3.40;;;;;;;;;;4955878;29;20426;-68
2023/10/13 06:46:07;;;;;;;4.57;2.83;;;;;;;;;;4956051;29;20767;-68
2023/10/13 06:48:34;;;;;;;6.50;3.77;;;;;;;;;;4955185;28;20427;-68
2023/10/13 06:51:04;;;;;;;13.17;4.17;;;;;;;;;;4955800;29;20419;-68
2023/10/13 06:53:36;;;;;;;5.73;3.20;;;;;;;;;;4955426;29;20410;-68
2023/10/13 06:56:03;;;;;;;10.07;3.60;;;;;;;;;;4955404;29;20470;-68
2023/10/13 06:58:29;;;;;;;2.73;2.50;;;;;;;;;;4955654;29;20442;-68
2023/10/13 07:00:55;;;;;;;11.57;4.63;;;;;;;;;;4955729;29;20502;-68
2023/10/13 07:03:22;;;;;;;6.67;3.40;;;;;;;;;;4955676;29;20426;-68
2023/10/13 07:05:48;;;;;;;4.77;4.10;;;;;;;;;;4955495;29;20514;-68
2023/10/13 07:08:19;;;;;;;5.33;3.37;;;;;;;;;;4955381;29;20458;-68
2023/10/13 07:10:52;;;;;;;6.10;3.03;;;;;;;;;;4955609;29;20422;-68
2023/10/13 07:13:19;;;;;;;6.10;3.37;;;;;;;;;;4955798;29;20777;-67
2023/10/13 07:15:46;;;;;;;8.03;3.40;;;;;;;;;;4955557;29;20431;-69
2023/10/13 07:18:13;;;;;;;7.80;3.43;;;;;;;;;;4955107;28;20466;-65
2023/10/13 07:20:43;;;;;;;4.40;3.60;;;;;;;;;;4955209;29;20514;-64
2023/10/13 07:23:11;;;;;;;11.03;3.53;;;;;;;;;;4937902;29;20450;-68
2023/10/13 07:25:40;;;;;;;9.83;3.63;;;;;;;;;;4955174;29;20494;-69
2023/10/13 07:28:09;;;;;;;3.17;2.97;;;;;;;;;;4955382;29;20435;-69
2023/10/13 07:33:20;;;;;;;7.60;3.30;;;;;;;;;;4955097;29;20399;-69
2023/10/13 07:35:50;;;;;;;12.73;3.67;;;;;;;;;;4955312;29;20458;-67
2023/10/13 07:38:16;;;;;;;9.55;3.50;;;;;;;;;;4954537;29;20419;-68
2023/10/13 07:40:50;;;;;;;6.73;3.40;;;;;;;;;;4954904;29;20569;-69
2023/10/13 07:43:21;;;;;;;5.40;4.07;;;;;;;;;;4955721;29;20414;-68
2023/10/13 07:45:50;;;;;;;5.63;3.43;;;;;;;;;;4938915;29;20429;-69
2023/10/13 07:48:20;;;;;;;11.47;3.07;;;;;;;;;;4955188;29;20411;-68
2023/10/13 07:50:46;;;;;;;11.60;2.80;;;;;;;;;;4955214;29;20430;-69
2023/10/13 07:53:19;;;;;;;6.53;4.00;;;;;;;;;;4954757;29;20459;-69
2023/10/13 07:55:48;;;;;;;3.77;3.40;;;;;;;;;;4955155;29;20398;-68
2023/10/13 07:58:14;;;;;;;6.07;2.90;;;;;;;;;;4955060;29;20528;-68
2023/10/13 08:03:17;;;;;;;9.70;2.80;;;;;;;;;;4958953;29;20431;-69
2023/10/13 08:05:58;;;;;;;14.13;3.63;;;;;;;;;;4959050;29;20414;-69
2023/10/13 08:08:39;;;;;;;7.50;2.83;;;;;;;;;;4958892;29;20395;-69
2023/10/13 08:11:25;;;;;;;14.83;2.93;;;;;;;;;;4959108;29;20442;-68
2023/10/13 08:13:54;;;;;;;11.20;3.10;;;;;;;;;;4958459;29;20446;-68
2023/10/13 08:16:22;;;;;;;9.90;3.30;;;;;;;;;;4958520;29;20473;-68
2023/10/13 08:18:51;;;;;;;10.17;2.30;;;;;;;;;;4958330;28;21064;-69
2023/10/13 08:21:18;;;;;;;4.53;3.43;;;;;;;;;;4958243;29;20473;-68
2023/10/13 08:43:16;;;;;;;3.70;3.13;;;;;;;;;;4958511;29;20425;-68
2023/10/13 08:48:08;;;;;;;3.90;2.40;;;;;;;;;;4958250;29;20962;-69
2023/10/13 09:04:21;;;;;;;4.47;1.93;;;;;;;;;;4957960;29;20454;-69
2023/10/13 09:06:47;;;;;;;7.73;2.87;;;;;;;;;;4957887;29;20410;-68
2023/10/13 09:09:34;;;;;;;8.33;1.93;;;;;;;;;;4957528;29;20809;-68
2023/10/13 09:12:14;;;;;;;7.00;2.37;;;;;;;;;;4957069;28;20485;-68
2023/10/13 09:18:12;;;;;;;6.37;2.10;;;;;;;;;;4957209;28;20461;-68
2023/10/13 09:23:09;;;;;;;12.00;2.63;;;;;;;;;;4957411;29;20861;-68
2023/10/13 09:25:36;;;;;;;11.20;2.77;;;;;;;;;;4957405;29;20419;-69
2023/10/13 09:28:10;;;;;;;14.53;2.83;;;;;;;;;;4956964;29;20486;-68
2023/10/13 09:30:42;;;;;;;9.93;3.50;;;;;;;;;;4957236;29;20411;-69
2023/10/13 09:33:08;;;;;;;18.10;4.83;;;;;;;;;;4957044;29;20443;-68
2023/10/13 09:35:36;;;;;;;6.17;4.50;;;;;;;;;;4957278;29;20423;-68
2023/10/13 09:38:03;;;;;;;17.33;2.93;;;;;;;;;;4957225;29;20430;-71
2023/10/13 09:43:05;;;;;;;3.43;2.13;;;;;;;;;;4957370;29;20411;-69
2023/10/13 09:45:56;;;;;;;4.33;2.27;;;;;;;;;;4956960;29;20416;-69
2023/10/13 09:48:26;;;;;;;5.60;2.90;;;;;;;;;;4957228;29;20403;-69
2023/10/13 09:50:53;;;;;;;4.67;1.90;;;;;;;;;;4956838;29;20434;-68
2023/10/13 09:53:23;;;;;;;5.10;1.73;;;;;;;;;;4939268;29;20494;-69
2023/10/13 09:55:54;;;;;;;6.50;2.30;;;;;;;;;;4956760;29;20476;-69
2023/10/13 09:58:28;;;;;;;8.47;3.60;;;;;;;;;;4939293;29;20427;-69
2023/10/13 10:01:00;;;;;;;35.33;3.23;;;;;;;;;;4957068;29;20562;-69
2023/10/13 10:03:30;;;;;;;8.47;1.70;;;;;;;;;;4956663;29;20415;-70
2023/10/13 10:06:08;;;;;;;6.90;2.40;;;;;;;;;;4956717;29;20387;-68
2023/10/13 10:08:34;;;;;;;5.93;2.00;;;;;;;;;;4956828;29;20820;-69
2023/10/13 10:11:20;;;;;;;3.37;2.00;;;;;;;;;;4956367;29;20986;-69
2023/10/13 10:13:54;;;;;;;7.77;2.47;;;;;;;;;;4956581;29;20810;-68
2023/10/13 10:16:23;;;;;;;4.83;2.90;;;;;;;;;;4956647;29;20403;-68
2023/10/13 10:18:59;;;;;;;3.60;3.40;;;;;;;;;;4956147;28;20467;-68
2023/10/13 10:21:33;;;;;;;24.67;2.53;;;;;;;;;;4956496;29;20469;-68
2023/10/13 10:23:59;;;;;;;7.33;2.57;;;;;;;;;;4955780;28;20422;-68
2023/10/13 10:26:25;;;;;;;7.67;2.30;;;;;;;;;;4956407;29;20414;-68
2023/10/13 10:28:52;;;;;;;7.50;2.73;;;;;;;;;;4956247;29;20421;-68
2023/10/13 10:31:19;;;;;;;6.03;2.20;;;;;;;;;;4956656;29;20465;-68
2023/10/13 10:33:51;;;;;;;5.47;2.97;;;;;;;;;;4956244;29;20411;-67
2023/10/13 10:36:17;;;;;;;3.87;2.60;;;;;;;;;;4956665;29;20423;-68
2023/10/13 10:38:55;;;;;;;9.47;3.00;;;;;;;;;;4955899;29;20911;-68
2023/10/13 10:41:29;;;;;;;2.23;2.00;;;;;;;;;;4956128;29;20475;-68
2023/10/13 10:43:57;;;;;;;5.90;2.47;;;;;;;;;;4955908;29;20399;-68
2023/10/13 10:46:27;;;;;;;12.83;3.30;;;;;;;;;;4955548;29;20566;-68
2023/10/13 10:49:00;;;;;;;2.07;2.00;;;;;;;;;;4955757;29;20410;-69
2023/10/13 10:51:31;;;;;;;11.10;2.60;;;;;;;;;;4955815;29;20494;-68
2023/10/13 10:53:57;;;;;;;4.43;2.97;;;;;;;;;;4955472;29;20403;-68
2023/10/13 10:56:25;;;;;;;9.67;2.27;;;;;;;;;;4955798;29;20502;-68
2023/10/13 10:58:55;;;;;;;2.73;2.00;;;;;;;;;;4955492;29;20411;-68
2023/10/13 11:01:22;;;;;;;10.80;2.47;;;;;;;;;;4955272;29;21018;-68
2023/10/13 11:06:55;;;;;;;6.10;2.20;;;;;;;;;;4955831;29;20473;-68
2023/10/13 11:11:58;;;;;;;3.20;2.27;;;;;;;;;;4955802;29;20466;-69
2023/10/13 11:14:28;;;;;;;3.80;2.77;;;;;;;;;;4955169;29;20418;-68
2023/10/13 11:16:55;;;;;;;7.43;1.60;;;;;;;;;;4955044;29;20423;-68
2023/10/13 11:19:37;;;;;;;2.20;2.10;;;;;;;;;;4954998;29;20427;-70
2023/10/13 11:25:12;;;;;;;8.63;2.30;;;;;;;;;;4954749;29;21012;-68
2023/10/13 11:27:55;;;;;;;7.20;2.30;;;;;;;;;;4954739;29;20410;-68
2023/10/13 11:30:25;;;;;;;2.73;2.27;;;;;;;;;;4954864;29;20415;-68
2023/10/13 11:32:57;;;;;;;2.93;2.73;;;;;;;;;;4955053;29;20407;-68
2023/10/13 11:35:24;;;;;;;6.07;2.33;;;;;;;;;;4954921;28;20431;-69
2023/10/13 11:38:03;;;;;;;6.60;2.00;;;;;;;;;;4955293;29;20411;-68
2023/10/13 11:41:07;;;;;;;2.33;2.13;;;;;;;;;;4955252;29;20474;-68
2023/10/13 11:46:16;;;;;;;5.63;2.60;;;;;;;;;;4955235;29;20529;-68
2023/10/13 11:48:46;;;;;;;3.33;2.20;;;;;;;;;;4955255;29;20419;-69
2023/10/13 11:51:31;;;;;;;2.37;2.17;;;;;;;;;;4954856;29;20403;-68
2023/10/13 11:53:58;;;;;;;6.63;3.60;;;;;;;;;;4955128;29;20407;-68
2023/10/13 11:56:24;;;;;;;4.07;2.30;;;;;;;;;;4955128;29;20825;-68
2023/10/13 11:58:50;;;;;;;2.07;1.93;;;;;;;;;;4955149;29;20419;-68
2023/10/13 12:01:20;;;;;;;2.43;2.20;;;;;;;;;;4954949;29;20478;-68
2023/10/13 12:09:12;;;;;;;2.50;2.33;;;;;;;;;;4955370;29;20486;-68
2023/10/13 12:11:41;;;;;;;7.43;2.87;;;;;;;;;;4955085;29;20414;-68
2023/10/13 12:14:21;;;;;;;16.40;2.97;;;;;;;;;;4955093;29;20891;-69
2023/10/13 12:16:50;;;;;;;13.00;2.60;;;;;;;;;;4954114;29;20434;-68
2023/10/13 12:19:17;;;;;;;3.60;2.00;;;;;;;;;;4971756;28;20492;-68
2023/10/13 12:21:43;;;;;;;12.07;2.50;;;;;;;;;;4973813;28;20509;-68
2023/10/13 12:24:21;;;;;;;3.40;2.10;;;;;;;;;;4973624;28;20425;-68
2023/10/13 12:26:47;;;;;;;9.33;2.97;;;;;;;;;;4973748;28;20459;-69
2023/10/13 12:29:22;;;;;;;2.17;2.07;;;;;;;;;;4974117;28;20778;-68
2023/10/13 12:32:01;;;;;;;2.40;2.20;;;;;;;;;;4974226;28;20439;-68
2023/10/13 12:34:56;;;;;;;4.17;2.13;;;;;;;;;;4974307;28;20413;-68
2023/10/13 12:51:07;;;;;;;3.60;2.00;;;;;;;;;;4977776;28;20771;-68
2023/10/13 12:53:34;;;;;;;2.13;2.00;;;;;;;;;;4977302;28;20410;-68
2023/10/13 12:56:03;;;;;;;10.18;2.30;;;;;;;;;;4976212;28;20489;-67
2023/10/13 12:58:29;;;;;;;2.60;1.73;;;;;;;;;;4977312;28;20182;-68
2023/10/13 13:01:06;;;;;;;1.90;1.80;;;;;;;;;;4977429;28;21051;-64
2023/10/13 13:03:32;;;;;;;2.00;1.77;;;;;;;;;;4977146;28;20401;-63
2023/10/13 13:05:58;;;;;;;3.73;2.30;;;;;;;;;;4976783;28;20938;-64
2023/10/13 13:08:24;;;;;;;4.30;2.40;;;;;;;;;;4976795;28;20410;-66
2023/10/13 13:10:52;;;;;;;3.30;1.77;;;;;;;;;;4976810;28;20422;-66
2023/10/13 13:13:24;;;;;;;7.10;1.87;;;;;;;;;;4977017;28;20427;-63
2023/10/13 13:15:50;;;;;;;4.43;1.70;;;;;;;;;;4976642;28;20906;-63
2023/10/13 13:18:16;;;;;;;9.73;1.70;;;;;;;;;;4965567;28;20471;-65
2023/10/13 13:21:02;;;;;;;5.70;4.80;;;;;;;;;;4940147;29;20493;-64
2023/10/13 13:23:31;;;;;;;4.23;2.30;;;;;;;;;;4957937;29;20403;-63
2023/10/13 13:25:56;;;;;;;4.97;2.33;;;;;;;;;;4958279;29;20452;-63
2023/10/13 13:28:24;;;;;;;6.37;2.20;;;;;;;;;;4957466;29;20771;-63
2023/10/13 13:30:50;;;;;;;3.67;2.40;;;;;;;;;;4957396;29;20434;-63
2023/10/13 13:33:23;;;;;;;2.07;1.97;;;;;;;;;;4957360;29;20455;-64
2023/10/13 13:35:49;;;;;;;4.23;2.30;;;;;;;;;;4957358;29;20462;-63
2023/10/13 13:38:30;;;;;;;4.93;1.97;;;;;;;;;;4958105;29;20430;-63
2023/10/13 13:40:56;;;;;;;3.50;1.93;;;;;;;;;;4957148;29;20554;-63
2023/10/13 13:43:37;;;;;;;4.80;1.80;;;;;;;;;;4957162;29;20562;-62
2023/10/13 13:46:03;;;;;;;2.47;2.27;;;;;;;;;;4957183;29;20439;-63
2023/10/13 13:48:30;;;;;;;12.03;2.47;;;;;;;;;;4957134;29;20419;-62
2023/10/13 13:51:04;;;;;;;2.73;2.53;;;;;;;;;;4957077;29;20415;-63
2023/10/13 13:53:32;;;;;;;5.23;2.60;;;;;;;;;;4956778;29;20395;-64
2023/10/13 13:56:00;;;;;;;5.83;1.73;;;;;;;;;;4956914;29;20570;-63
2023/10/13 13:58:26;;;;;;;2.43;2.33;;;;;;;;;;4955609;28;20427;-63
2023/10/13 14:00:57;;;;;;;8.43;3.00;;;;;;;;;;4956759;29;20474;-63
2023/10/13 14:03:32;;;;;;;10.17;2.50;;;;;;;;;;4956761;29;20427;-69
2023/10/13 14:05:59;;;;;;;21.80;3.87;;;;;;;;;;4939928;29;20470;-68
2023/10/13 14:08:25;;;;;;;19.47;3.53;;;;;;;;;;4956339;29;20430;-68
2023/10/13 14:13:48;;;;;;;5.47;3.50;;;;;;;;;;4956614;29;20407;-68
2023/10/13 14:16:18;;;;;;;12.80;3.50;;;;;;;;;;4956577;29;20407;-68
2023/10/13 14:18:44;;;;;;;7.53;2.80;;;;;;;;;;4956182;28;20467;-68
2023/10/13 14:21:10;;;;;;;1.50;1.47;;;;;;;;;;4956195;29;20474;-68
2023/10/13 14:23:38;;;;;;;13.53;2.50;;;;;;;;;;4956212;29;21001;-68
2023/10/13 14:26:09;;;;;;;5.53;2.93;;;;;;;;;;4956217;29;20411;-68
2023/10/13 14:28:34;;;;;;;2.33;2.13;;;;;;;;;;4956363;29;20553;-68
2023/10/13 14:31:09;;;;;;;5.33;2.00;;;;;;;;;;4956259;29;20450;-68
2023/10/13 14:33:36;;;;;;;4.40;2.93;;;;;;;;;;4956193;29;20394;-68
2023/10/13 14:36:04;;;;;;;17.37;2.33;;;;;;;;;;4956157;29;20554;-68
2023/10/13 14:38:30;;;;;;;6.30;2.40;;;;;;;;;;4956100;29;20419;-65
2023/10/13 14:40:58;;;;;;;4.87;2.83;;;;;;;;;;4956058;29;20482;-69
2023/10/13 14:43:27;;;;;;;3.40;2.07;;;;;;;;;;4956006;29;20426;-68
2023/10/13 14:45:53;;;;;;;2.70;1.90;;;;;;;;;;4955594;29;20431;-68
2023/10/13 14:48:19;;;;;;;6.27;2.90;;;;;;;;;;4938956;29;20505;-68
2023/10/13 14:50:45;;;;;;;7.00;2.33;;;;;;;;;;4955671;29;20461;-68
2023/10/13 14:53:11;;;;;;;6.67;2.40;;;;;;;;;;4955850;29;20477;-68
2023/10/13 14:55:40;;;;;;;1.60;1.50;;;;;;;;;;4938477;29;20458;-68
2023/10/13 14:58:12;;;;;;;5.60;2.23;;;;;;;;;;4955564;29;20482;-68
2023/10/13 15:00:38;;;;;;;7.40;1.90;;;;;;;;;;4955386;29;20979;-69
2023/10/13 15:03:06;;;;;;;7.20;2.37;;;;;;;;;;4938268;29;20434;-70
2023/10/13 15:05:35;;;;;;;9.43;2.50;;;;;;;;;;4955558;29;20429;-68
2023/10/13 15:08:03;;;;;;;21.37;4.13;;;;;;;;;;4938392;29;20915;-68
2023/10/13 15:10:29;;;;;;;2.80;2.60;;;;;;;;;;4955487;28;20577;-68
2023/10/13 15:12:55;;;;;;;7.33;2.87;;;;;;;;;;4955590;29;20442;-68
2023/10/13 15:15:21;;;;;;;3.50;1.40;;;;;;;;;;4955648;29;20446;-68
2023/10/13 15:17:48;;;;;;;2.40;1.40;;;;;;;;;;4955368;28;20467;-68
2023/10/13 15:20:17;;;;;;;2.50;2.10;;;;;;;;;;4955559;29;20494;-68
2023/10/13 15:22:44;;;;;;;2.63;1.87;;;;;;;;;;4955547;29;20431;-68
2023/10/13 15:25:28;;;;;;;2.90;2.50;;;;;;;;;;4955498;29;20418;-68
2023/10/13 15:28:05;;;;;;;1.93;1.83;;;;;;;;;;4955467;29;20403;-68
2023/10/13 15:31:04;;;;;;;4.30;1.63;;;;;;;;;;4955520;29;20407;-68
2023/10/13 15:33:20;;;;;;;1.90;1.50;;;;;;;;;;4954379;29;20419;-68
2023/10/13 15:35:46;;;;;;;3.20;1.63;;;;;;;;;;4955016;29;20430;-68
2023/10/13 15:38:12;;;;;;;2.13;1.93;;;;;;;;;;4955053;29;20776;-68
2023/10/13 15:40:44;;;;;;;3.07;1.90;;;;;;;;;;4955048;29;20467;-68
2023/10/13 15:43:12;;;;;;;5.27;1.50;;;;;;;;;;4955240;29;20419;-68
2023/10/13 15:45:42;;;;;;;6.13;1.60;;;;;;;;;;4954959;29;20915;-68
2023/10/13 15:48:11;;;;;;;6.93;2.03;;;;;;;;;;4955315;29;20408;-68
2023/10/13 15:50:41;;;;;;;2.53;2.20;;;;;;;;;;4954916;29;20425;-68
2023/10/13 15:53:08;;;;;;;5.07;1.57;;;;;;;;;;4954944;29;20503;-68
2023/10/13 15:55:37;;;;;;;2.60;1.00;;;;;;;;;;4954975;29;20789;-68
2023/10/13 15:58:07;;;;;;;1.90;1.17;;;;;;;;;;4955068;29;20498;-68
2023/10/13 16:00:35;;;;;;;5.20;1.73;;;;;;;;;;4954964;29;20478;-68
2023/10/13 16:03:01;;;;;;;5.40;1.50;;;;;;;;;;4954844;29;20457;-68
2023/10/13 16:05:37;;;;;;;1.70;1.07;;;;;;;;;;4955092;29;20498;-69
2023/10/13 16:08:03;;;;;;;4.43;1.03;;;;;;;;;;4954833;29;20786;-68
2023/10/13 16:10:29;;;;;;;5.03;1.43;;;;;;;;;;4954881;29;20939;-68
2023/10/13 16:12:57;;;;;;;2.30;1.67;;;;;;;;;;4954978;29;20415;-68
2023/10/13 16:15:23;;;;;;;1.50;1.50;;;;;;;;;;4954587;29;20465;-68
2023/10/13 16:17:53;;;;;;;1.63;1.53;;;;;;;;;;4954777;28;20505;-68
2023/10/13 16:20:20;;;;;;;12.70;1.77;;;;;;;;;;4954854;28;20462;-68
2023/10/13 16:22:47;;;;;;;5.03;1.90;;;;;;;;;;4958538;29;20423;-68
2023/10/13 16:25:13;;;;;;;6.37;1.67;;;;;;;;;;4958670;29;20411;-68
2023/10/13 16:27:43;;;;;;;3.50;1.47;;;;;;;;;;4958429;29;20411;-69
2023/10/13 16:30:15;;;;;;;4.30;1.40;;;;;;;;;;4958300;29;20415;-68
2023/10/13 16:32:45;;;;;;;7.00;1.30;;;;;;;;;;4958594;29;20407;-68
2023/10/13 16:35:13;;;;;;;4.17;3.90;;;;;;;;;;4958349;29;20417;-68
2023/10/13 16:37:39;;;;;;;1.80;1.63;;;;;;;;;;4958465;29;20530;-68
2023/10/13 16:40:05;;;;;;;3.17;1.97;;;;;;;;;;4958316;29;20473;-68
2023/10/13 16:42:37;;;;;;;4.17;1.73;;;;;;;;;;4958031;29;20441;-69
2023/10/13 16:45:25;;;;;;;9.20;2.73;;;;;;;;;;4958245;29;20403;-68
2023/10/13 16:47:50;;;;;;;1.90;1.47;;;;;;;;;;4957475;29;20426;-68
2023/10/13 16:50:17;;;;;;;1.33;1.30;;;;;;;;;;4958105;29;20423;-70
2023/10/13 16:52:46;;;;;;;3.57;1.50;;;;;;;;;;4958083;29;20426;-70
2023/10/13 16:55:12;;;;;;;2.70;1.83;;;;;;;;;;4957995;29;20826;-68
2023/10/13 16:57:38;;;;;;;3.10;1.80;;;;;;;;;;4958338;29;20481;-68
2023/10/13 17:00:11;;;;;;;1.10;1.10;;;;;;;;;;4957728;29;20557;-68
2023/10/13 17:02:37;;;;;;;1.53;1.43;;;;;;;;;;4958264;29;20423;-68
2023/10/13 17:05:04;;;;;;;1.30;1.30;;;;;;;;;;4957720;29;20419;-68
2023/10/13 17:07:31;;;;;;;3.93;1.60;;;;;;;;;;4957866;29;20438;-68
2023/10/13 17:09:57;;;;;;;16.90;1.50;;;;;;;;;;4940193;29;20419;-68
2023/10/13 17:12:23;;;;;;;1.90;1.80;;;;;;;;;;4957264;29;20432;-68
2023/10/13 17:14:50;;;;;;;1.50;1.50;;;;;;;;;;4957565;29;20433;-68
2023/10/13 17:17:16;;;;;;;2.30;1.37;;;;;;;;;;4939834;28;20462;-68
2023/10/13 17:19:49;;;;;;;2.13;1.93;;;;;;;;;;4957476;29;20903;-69
2023/10/13 17:22:16;;;;;;;4.00;1.80;;;;;;;;;;4957446;29;20419;-67
2023/10/13 17:24:42;;;;;;;5.07;1.67;;;;;;;;;;4939862;29;20530;-68
2023/10/13 17:27:09;;;;;;;14.53;2.50;;;;;;;;;;4957120;29;20572;-68
2023/10/13 17:29:35;;;;;;;6.93;3.40;;;;;;;;;;4957339;29;20458;-68
2023/10/13 17:32:02;;;;;;;9.83;2.10;;;;;;;;;;4956963;28;20943;-68
2023/10/13 17:34:28;;;;;;;2.20;1.40;;;;;;;;;;4956871;29;20430;-68
2023/10/13 17:36:58;;;;;;;2.70;1.70;;;;;;;;;;4956946;29;20431;-68
2023/10/13 17:39:24;;;;;;;4.97;1.40;;;;;;;;;;4956867;29;20419;-68
2023/10/13 17:41:51;;;;;;;1.37;1.37;;;;;;;;;;4956816;29;20485;-68
2023/10/13 17:44:17;;;;;;;2.00;1.90;;;;;;;;;;4956815;29;20554;-68
2023/10/13 17:46:44;;;;;;;2.30;1.95;;;;;;;;;;4955626;29;20420;-68
2023/10/13 17:49:09;;;;;;;3.20;1.67;;;;;;;;;;4956724;29;20655;-68
2023/10/13 17:51:36;;;;;;;1.60;1.60;;;;;;;;;;4956715;29;20419;-68
2023/10/13 17:54:02;;;;;;;4.93;1.63;;;;;;;;;;4956674;29;20522;-68
2023/10/13 17:56:27;;;;;;;3.23;1.60;;;;;;;;;;4956896;29;20486;-68
2023/10/13 17:58:53;;;;;;;4.20;1.50;;;;;;;;;;4956613;29;20415;-68
2023/10/13 18:01:20;;;;;;;18.63;2.50;;;;;;;;;;4956662;29;20478;-67
2023/10/13 18:03:50;;;;;;;1.57;1.47;;;;;;;;;;4939291;29;20493;-68
2023/10/13 18:06:20;;;;;;;2.00;1.90;;;;;;;;;;4956804;29;20411;-68
2023/10/13 18:08:47;;;;;;;2.00;1.90;;;;;;;;;;4956768;29;20429;-68
2023/10/13 18:11:13;;;;;;;5.40;2.00;;;;;;;;;;4956622;29;20498;-67
2023/10/13 18:13:41;;;;;;;8.27;1.80;;;;;;;;;;4956663;29;20473;-69
2023/10/13 18:16:19;;;;;;;5.80;1.77;;;;;;;;;;4956326;29;20469;-68
2023/10/13 18:18:46;;;;;;;13.03;1.73;;;;;;;;;;4956081;28;20542;-68
2023/10/13 18:21:12;;;;;;;1.47;1.47;;;;;;;;;;4956286;29;20477;-68
2023/10/13 18:23:42;;;;;;;1.70;1.33;;;;;;;;;;4956862;29;20818;-70
2023/10/13 18:26:08;;;;;;;7.97;1.90;;;;;;;;;;4956336;29;20775;-68
2023/10/13 18:28:37;;;;;;;1.80;1.70;;;;;;;;;;4956263;29;20422;-68